sensor_id;sensor_type;location;lat;lon;timestamp;pressure;altitude;pressure_sealevel;temperature;humidity
42601;BME280;28229;48.856;9.088;2023-04-27T00:00:53;98040.69;;;7.68;79.43
42601;BME280;28229;48.856;9.088;2023-04-27T00:03:19;98045.38;;;7.72;79.84
42601;BME280;28229;48.856;9.088;2023-04-27T00:05:45;98036.25;;;7.68;80.51
42601;BME280;28229;48.856;9.088;2023-04-27T00:08:32;98036.28;;;7.75;80.41
42601;BME280;28229;48.856;9.088;2023-04-27T00:10:59;98038.34;;;7.79;80.51
42601;BME280;28229;48.856;9.088;2023-04-27T00:13:25;98030.06;;;7.76;81.29
42601;BME280;28229;48.856;9.088;2023-04-27T00:15:52;98025.59;;;7.70;81.68
42601;BME280;28229;48.856;9.088;2023-04-27T00:18:18;98027.84;;;7.73;82.58
42601;BME280;28229;48.856;9.088;2023-04-27T00:20:44;98028.25;;;7.76;82.99
42601;BME280;28229;48.856;9.088;2023-04-27T00:23:11;98027.03;;;7.72;82.79
42601;BME280;28229;48.856;9.088;2023-04-27T00:25:37;98014.06;;;7.57;82.77
42601;BME280;28229;48.856;9.088;2023-04-27T00:28:03;98020.09;;;7.51;82.12
42601;BME280;28229;48.856;9.088;2023-04-27T00:30:30;98018.47;;;7.50;81.37
42601;BME280;28229;48.856;9.088;2023-04-27T00:32:56;98020.47;;;7.48;81.44
42601;BME280;28229;48.856;9.088;2023-04-27T00:35:22;98016.88;;;7.49;81.56
42601;BME280;28229;48.856;9.088;2023-04-27T00:37:49;98019.13;;;7.52;81.51
42601;BME280;28229;48.856;9.088;2023-04-27T00:40:15;98008.41;;;7.47;82.53
42601;BME280;28229;48.856;9.088;2023-04-27T00:42:41;98017.84;;;7.41;83.75
42601;BME280;28229;48.856;9.088;2023-04-27T00:45:08;98013.38;;;7.35;84.69
42601;BME280;28229;48.856;9.088;2023-04-27T00:47:35;98006.16;;;7.37;85.10
42601;BME280;28229;48.856;9.088;2023-04-27T00:50:02;98007.97;;;7.37;85.38
42601;BME280;28229;48.856;9.088;2023-04-27T00:52:29;98007.97;;;7.37;85.63
42601;BME280;28229;48.856;9.088;2023-04-27T00:54:56;98005.13;;;7.32;85.67
42601;BME280;28229;48.856;9.088;2023-04-27T00:57:22;98007.72;;;7.32;85.82
42601;BME280;28229;48.856;9.088;2023-04-27T00:59:48;98006.50;;;7.28;85.98
42601;BME280;28229;48.856;9.088;2023-04-27T01:02:15;98009.34;;;7.33;86.16
42601;BME280;28229;48.856;9.088;2023-04-27T01:04:41;98010.72;;;7.29;86.41
42601;BME280;28229;48.856;9.088;2023-04-27T01:07:07;98009.50;;;7.24;86.88
42601;BME280;28229;48.856;9.088;2023-04-27T01:09:33;98006.69;;;7.26;86.90
42601;BME280;28229;48.856;9.088;2023-04-27T01:12:00;98008.72;;;7.31;87.38
42601;BME280;28229;48.856;9.088;2023-04-27T01:14:28;98010.72;;;7.29;87.36
42601;BME280;28229;48.856;9.088;2023-04-27T01:16:54;98015.16;;;7.28;86.98
42601;BME280;28229;48.856;9.088;2023-04-27T01:19:20;98015.53;;;7.25;86.83
42601;BME280;28229;48.856;9.088;2023-04-27T01:21:49;98011.91;;;7.19;86.56
42601;BME280;28229;48.856;9.088;2023-04-27T01:24:16;98016.56;;;7.31;86.04
42601;BME280;28229;48.856;9.088;2023-04-27T01:26:42;98020.78;;;7.25;86.45
42601;BME280;28229;48.856;9.088;2023-04-27T01:29:09;98023.16;;;7.13;86.72
42601;BME280;28229;48.856;9.088;2023-04-27T01:31:35;98020.91;;;7.10;87.09
42601;BME280;28229;48.856;9.088;2023-04-27T01:34:01;98019.50;;;7.14;86.50
42601;BME280;28229;48.856;9.088;2023-04-27T01:36:31;98018.72;;;7.14;86.70
42601;BME280;28229;48.856;9.088;2023-04-27T01:38:57;98009.44;;;7.11;86.93
42601;BME280;28229;48.856;9.088;2023-04-27T01:41:24;98021.91;;;7.09;87.59
42601;BME280;28229;48.856;9.088;2023-04-27T01:43:50;98017.81;;;7.00;87.90
42601;BME280;28229;48.856;9.088;2023-04-27T01:46:16;98016.66;;;7.02;88.16
42601;BME280;28229;48.856;9.088;2023-04-27T01:48:43;98019.63;;;6.99;87.59
42601;BME280;28229;48.856;9.088;2023-04-27T01:51:10;98016.22;;;6.99;87.62
42601;BME280;28229;48.856;9.088;2023-04-27T01:53:36;98020.59;;;6.92;88.24
42601;BME280;28229;48.856;9.088;2023-04-27T01:56:02;98009.91;;;6.86;88.22
42601;BME280;28229;48.856;9.088;2023-04-27T01:58:32;98019.34;;;6.88;88.04
42601;BME280;28229;48.856;9.088;2023-04-27T02:00:58;98017.34;;;6.90;87.22
42601;BME280;28229;48.856;9.088;2023-04-27T02:03:24;98023.78;;;6.87;87.28
42601;BME280;28229;48.856;9.088;2023-04-27T02:05:51;98018.97;;;6.91;86.63
42601;BME280;28229;48.856;9.088;2023-04-27T02:08:18;98027.44;;;6.93;86.70
42601;BME280;28229;48.856;9.088;2023-04-27T02:10:44;98030.91;;;7.00;87.11
42601;BME280;28229;48.856;9.088;2023-04-27T02:13:12;98027.44;;;6.93;87.55
42601;BME280;28229;48.856;9.088;2023-04-27T02:15:38;98023.41;;;6.90;88.02
42601;BME280;28229;48.856;9.088;2023-04-27T02:18:04;98024.16;;;6.84;88.49
42601;BME280;28229;48.856;9.088;2023-04-27T02:20:31;98028.81;;;6.89;88.38
42601;BME280;28229;48.856;9.088;2023-04-27T02:22:59;98033.38;;;6.80;89.02
42601;BME280;28229;48.856;9.088;2023-04-27T02:25:27;98024.56;;;6.88;88.12
42601;BME280;28229;48.856;9.088;2023-04-27T02:27:53;98031.44;;;6.89;88.12
42601;BME280;28229;48.856;9.088;2023-04-27T02:30:19;98036.06;;;6.93;88.25
42601;BME280;28229;48.856;9.088;2023-04-27T02:32:46;98031.88;;;6.92;88.49
42601;BME280;28229;48.856;9.088;2023-04-27T02:35:12;98037.81;;;6.79;89.40
42601;BME280;28229;48.856;9.088;2023-04-27T02:37:38;98032.19;;;6.82;89.72
42601;BME280;28229;48.856;9.088;2023-04-27T02:40:05;98040.84;;;6.83;90.41
42601;BME280;28229;48.856;9.088;2023-04-27T02:42:32;98038.44;;;6.81;90.45
42601;BME280;28229;48.856;9.088;2023-04-27T02:44:59;98039.78;;;6.77;90.74
42601;BME280;28229;48.856;9.088;2023-04-27T02:47:25;98034.97;;;6.74;90.76
42601;BME280;28229;48.856;9.088;2023-04-27T02:49:51;98039.34;;;6.74;90.57
42601;BME280;28229;48.856;9.088;2023-04-27T02:52:18;98040.19;;;6.74;90.41
42601;BME280;28229;48.856;9.088;2023-04-27T02:54:44;98044.59;;;6.74;90.08
42601;BME280;28229;48.856;9.088;2023-04-27T02:57:10;98045.66;;;6.79;89.55
42601;BME280;28229;48.856;9.088;2023-04-27T02:59:36;98046.66;;;6.78;89.16
42601;BME280;28229;48.856;9.088;2023-04-27T03:02:02;98045.00;;;6.71;89.64
42601;BME280;28229;48.856;9.088;2023-04-27T03:04:28;98045.41;;;6.74;88.97
42601;BME280;28229;48.856;9.088;2023-04-27T03:06:55;98042.56;;;6.69;89.42
42601;BME280;28229;48.856;9.088;2023-04-27T03:09:21;98047.78;;;6.69;88.97
42601;BME280;28229;48.856;9.088;2023-04-27T03:11:47;98041.75;;;6.69;86.61
42601;BME280;28229;48.856;9.088;2023-04-27T03:14:13;98048.53;;;6.63;86.17
42601;BME280;28229;48.856;9.088;2023-04-27T03:16:40;98047.41;;;6.72;85.55
42601;BME280;28229;48.856;9.088;2023-04-27T03:19:07;98049.69;;;6.82;85.70
42601;BME280;28229;48.856;9.088;2023-04-27T03:21:33;98042.22;;;6.79;87.38
42601;BME280;28229;48.856;9.088;2023-04-27T03:23:59;98044.16;;;6.70;88.35
42601;BME280;28229;48.856;9.088;2023-04-27T03:26:25;98052.69;;;6.79;89.28
42601;BME280;28229;48.856;9.088;2023-04-27T03:28:52;98047.88;;;6.82;89.57
42601;BME280;28229;48.856;9.088;2023-04-27T03:31:18;98044.16;;;6.70;90.55
42601;BME280;28229;48.856;9.088;2023-04-27T03:33:44;98038.56;;;6.73;91.49
42601;BME280;28229;48.856;9.088;2023-04-27T03:36:11;98038.56;;;6.73;91.75
42601;BME280;28229;48.856;9.088;2023-04-27T03:38:41;98046.16;;;6.68;92.31
42601;BME280;28229;48.856;9.088;2023-04-27T03:41:07;98036.97;;;6.72;91.95
42601;BME280;28229;48.856;9.088;2023-04-27T03:43:34;98049.19;;;6.72;92.04
42601;BME280;28229;48.856;9.088;2023-04-27T03:46:02;98043.78;;;6.73;92.30
42601;BME280;28229;48.856;9.088;2023-04-27T03:48:28;98039.34;;;6.74;92.22
42601;BME280;28229;48.856;9.088;2023-04-27T03:50:55;98049.38;;;6.70;92.40
42601;BME280;28229;48.856;9.088;2023-04-27T03:53:22;98040.63;;;6.78;91.05
42601;BME280;28229;48.856;9.088;2023-04-27T03:55:49;98050.25;;;6.77;90.85
42601;BME280;28229;48.856;9.088;2023-04-27T03:58:16;98050.69;;;6.81;90.59
42601;BME280;28229;48.856;9.088;2023-04-27T04:01:07;98046.69;;;6.85;90.90
42601;BME280;28229;48.856;9.088;2023-04-27T04:03:36;98046.03;;;6.76;91.95
42601;BME280;28229;48.856;9.088;2023-04-27T04:06:05;98052.69;;;6.79;91.22
42601;BME280;28229;48.856;9.088;2023-04-27T04:08:31;98050.25;;;6.77;90.07
42601;BME280;28229;48.856;9.088;2023-04-27T04:10:59;98049.25;;;6.78;89.39
42601;BME280;28229;48.856;9.088;2023-04-27T04:13:27;98047.25;;;6.80;89.22
42601;BME280;28229;48.856;9.088;2023-04-27T04:16:03;98041.41;;;6.78;89.81
42601;BME280;28229;48.856;9.088;2023-04-27T04:18:30;98045.41;;;6.74;90.50
42601;BME280;28229;48.856;9.088;2023-04-27T04:20:57;98040.94;;;6.68;91.41
42601;BME280;28229;48.856;9.088;2023-04-27T04:23:23;98043.53;;;6.68;92.24
42601;BME280;28229;48.856;9.088;2023-04-27T04:25:50;98052.25;;;6.75;92.66
42601;BME280;28229;48.856;9.088;2023-04-27T04:28:16;98059.84;;;6.70;92.90
42601;BME280;28229;48.856;9.088;2023-04-27T04:30:43;98061.84;;;6.68;93.05
42601;BME280;28229;48.856;9.088;2023-04-27T04:33:09;98061.84;;;6.68;93.08
42601;BME280;28229;48.856;9.088;2023-04-27T04:35:39;98057.88;;;6.72;93.19
42601;BME280;28229;48.856;9.088;2023-04-27T04:38:08;98056.84;;;6.73;92.89
42601;BME280;28229;48.856;9.088;2023-04-27T04:40:34;98060.91;;;6.76;92.88
42601;BME280;28229;48.856;9.088;2023-04-27T04:43:03;98059.66;;;6.72;92.99
42601;BME280;28229;48.856;9.088;2023-04-27T04:45:29;98064.34;;;6.76;92.47
42601;BME280;28229;48.856;9.088;2023-04-27T04:47:59;98059.09;;;6.76;92.15
42601;BME280;28229;48.856;9.088;2023-04-27T04:50:29;98054.13;;;6.81;91.95
42601;BME280;28229;48.856;9.088;2023-04-27T04:52:55;98064.75;;;6.80;91.44
42601;BME280;28229;48.856;9.088;2023-04-27T04:55:21;98061.47;;;6.71;90.03
42601;BME280;28229;48.856;9.088;2023-04-27T04:57:48;98063.47;;;6.69;87.61
42601;BME280;28229;48.856;9.088;2023-04-27T05:00:14;98066.41;;;6.81;86.89
42601;BME280;28229;48.856;9.088;2023-04-27T05:02:40;98061.19;;;6.88;86.04
42601;BME280;28229;48.856;9.088;2023-04-27T05:05:07;98062.03;;;6.88;85.70
42601;BME280;28229;48.856;9.088;2023-04-27T05:07:34;98067.63;;;6.85;85.40
42601;BME280;28229;48.856;9.088;2023-04-27T05:10:00;98060.94;;;6.82;85.35
42601;BME280;28229;48.856;9.088;2023-04-27T05:12:26;98064.41;;;6.90;85.05
42601;BME280;28229;48.856;9.088;2023-04-27T05:14:52;98062.44;;;6.92;84.72
42601;BME280;28229;48.856;9.088;2023-04-27T05:17:18;98059.25;;;6.96;84.47
42601;BME280;28229;48.856;9.088;2023-04-27T05:19:45;98063.69;;;6.96;83.78
42601;BME280;28229;48.856;9.088;2023-04-27T05:22:11;98071.16;;;6.99;83.53
42601;BME280;28229;48.856;9.088;2023-04-27T05:24:37;98069.75;;;7.03;83.35
42601;BME280;28229;48.856;9.088;2023-04-27T05:27:03;98067.16;;;7.03;82.18
42601;BME280;28229;48.856;9.088;2023-04-27T05:29:32;98067.63;;;7.13;82.32
42601;BME280;28229;48.856;9.088;2023-04-27T05:31:59;98071.47;;;7.17;82.07
42601;BME280;28229;48.856;9.088;2023-04-27T05:34:25;98071.09;;;7.20;81.78
42601;BME280;28229;48.856;9.088;2023-04-27T05:36:52;98072.31;;;7.24;81.12
42601;BME280;28229;48.856;9.088;2023-04-27T05:39:18;98085.41;;;7.24;80.99
42601;BME280;28229;48.856;9.088;2023-04-27T05:41:46;98077.59;;;7.31;80.91
42601;BME280;28229;48.856;9.088;2023-04-27T05:44:12;98083.63;;;7.32;80.86
42601;BME280;28229;48.856;9.088;2023-04-27T05:46:39;98083.06;;;7.36;80.58
42601;BME280;28229;48.856;9.088;2023-04-27T05:52:11;98086.53;;;7.50;79.73
42601;BME280;28229;48.856;9.088;2023-04-27T05:54:48;98082.41;;;7.69;85.40
42601;BME280;28229;48.856;9.088;2023-04-27T05:57:18;98085.00;;;7.62;79.78
42601;BME280;28229;48.856;9.088;2023-04-27T05:59:49;98092.91;;;7.76;79.18
42601;BME280;28229;48.856;9.088;2023-04-27T06:02:21;98091.91;;;7.77;78.51
42601;BME280;28229;48.856;9.088;2023-04-27T06:04:59;98099.16;;;7.75;77.75
42601;BME280;28229;48.856;9.088;2023-04-27T06:07:25;98101.63;;;7.83;78.25
42601;BME280;28229;48.856;9.088;2023-04-27T06:09:54;98100.22;;;7.87;78.75
42601;BME280;28229;48.856;9.088;2023-04-27T06:12:20;98101.03;;;7.94;78.83
42601;BME280;28229;48.856;9.088;2023-04-27T06:14:46;98098.06;;;8.04;78.31
42601;BME280;28229;48.856;9.088;2023-04-27T06:17:15;98104.34;;;8.10;77.50
42601;BME280;28229;48.856;9.088;2023-04-27T06:19:41;98097.28;;;8.17;77.32
42601;BME280;28229;48.856;9.088;2023-04-27T06:22:09;98106.25;;;8.43;88.48
42601;BME280;28229;48.856;9.088;2023-04-27T06:24:36;98111.53;;;8.69;87.65
42601;BME280;28229;48.856;9.088;2023-04-27T06:27:04;98107.91;;;8.84;82.23
42601;BME280;28229;48.856;9.088;2023-04-27T06:29:31;98110.75;;;9.02;85.43
42601;BME280;28229;48.856;9.088;2023-04-27T06:31:57;98111.13;;;9.12;76.02
42601;BME280;28229;48.856;9.088;2023-04-27T06:34:23;98109.13;;;9.14;74.19
42601;BME280;28229;48.856;9.088;2023-04-27T06:36:49;98105.47;;;9.15;74.15
42601;BME280;28229;48.856;9.088;2023-04-27T06:39:16;98111.13;;;9.26;72.66
42601;BME280;28229;48.856;9.088;2023-04-27T06:41:42;98114.34;;;9.28;72.26
42601;BME280;28229;48.856;9.088;2023-04-27T06:44:18;98111.72;;;9.34;72.66
42601;BME280;28229;48.856;9.088;2023-04-27T06:46:44;98108.66;;;9.44;71.95
42601;BME280;28229;48.856;9.088;2023-04-27T06:49:10;98115.94;;;9.56;71.87
42601;BME280;28229;48.856;9.088;2023-04-27T06:51:36;98121.00;;;9.50;70.22
42601;BME280;28229;48.856;9.088;2023-04-27T06:54:02;98118.56;;;9.49;70.50
42601;BME280;28229;48.856;9.088;2023-04-27T06:56:29;98120.56;;;9.53;70.98
42601;BME280;28229;48.856;9.088;2023-04-27T06:58:55;98121.13;;;9.62;68.54
42601;BME280;28229;48.856;9.088;2023-04-27T07:01:21;98124.16;;;9.66;68.63
42601;BME280;28229;48.856;9.088;2023-04-27T07:03:47;98123.94;;;9.74;69.26
42601;BME280;28229;48.856;9.088;2023-04-27T07:06:14;98131.78;;;9.87;69.05
42601;BME280;28229;48.856;9.088;2023-04-27T07:08:41;98119.84;;;9.91;67.19
42601;BME280;28229;48.856;9.088;2023-04-27T07:11:07;98123.84;;;10.01;66.96
42601;BME280;28229;48.856;9.088;2023-04-27T07:13:33;98120.25;;;9.95;65.20
42601;BME280;28229;48.856;9.088;2023-04-27T07:16:00;98121.63;;;10.04;66.23
42601;BME280;28229;48.856;9.088;2023-04-27T07:18:26;98120.75;;;10.10;64.32
42601;BME280;28229;48.856;9.088;2023-04-27T07:20:55;98118.75;;;10.13;65.50
42601;BME280;28229;48.856;9.088;2023-04-27T07:23:23;98115.28;;;10.19;65.66
42601;BME280;28229;48.856;9.088;2023-04-27T07:25:49;98118.81;;;10.44;63.07
42601;BME280;28229;48.856;9.088;2023-04-27T07:28:15;98118.25;;;10.67;62.25
42601;BME280;28229;48.856;9.088;2023-04-27T07:30:41;98125.91;;;10.76;61.59
42601;BME280;28229;48.856;9.088;2023-04-27T07:33:10;98116.88;;;10.90;61.39
42601;BME280;28229;48.856;9.088;2023-04-27T07:35:36;98122.44;;;11.07;59.81
42601;BME280;28229;48.856;9.088;2023-04-27T07:38:03;98112.72;;;11.26;60.43
42601;BME280;28229;48.856;9.088;2023-04-27T07:40:30;98118.94;;;11.57;59.21
42601;BME280;28229;48.856;9.088;2023-04-27T07:42:57;98113.22;;;11.78;58.25
42601;BME280;28229;48.856;9.088;2023-04-27T07:45:23;98116.75;;;11.91;57.71
42601;BME280;28229;48.856;9.088;2023-04-27T07:47:59;98119.66;;;12.01;57.87
42601;BME280;28229;48.856;9.088;2023-04-27T07:50:27;98124.19;;;12.12;53.18
42601;BME280;28229;48.856;9.088;2023-04-27T07:52:55;98125.13;;;12.18;52.36
42601;BME280;28229;48.856;9.088;2023-04-27T07:55:22;98114.72;;;12.23;53.18
42601;BME280;28229;48.856;9.088;2023-04-27T07:57:49;98113.44;;;12.44;54.10
42601;BME280;28229;48.856;9.088;2023-04-27T08:00:16;98111.31;;;12.65;53.85
42601;BME280;28229;48.856;9.088;2023-04-27T08:02:42;98111.91;;;12.90;53.89
42601;BME280;28229;48.856;9.088;2023-04-27T08:05:08;98119.41;;;13.17;52.46
42601;BME280;28229;48.856;9.088;2023-04-27T08:07:35;98111.63;;;13.46;52.34
42601;BME280;28229;48.856;9.088;2023-04-27T08:10:01;98119.41;;;13.64;51.21
42601;BME280;28229;48.856;9.088;2023-04-27T08:12:27;98111.16;;;13.73;51.88
42601;BME280;28229;48.856;9.088;2023-04-27T08:14:53;98110.75;;;13.93;50.19
42601;BME280;28229;48.856;9.088;2023-04-27T08:17:19;98112.22;;;14.00;49.46
42601;BME280;28229;48.856;9.088;2023-04-27T08:19:48;98103.72;;;13.98;49.33
42601;BME280;28229;48.856;9.088;2023-04-27T08:22:14;98105.84;;;14.13;48.72
42601;BME280;28229;48.856;9.088;2023-04-27T08:24:41;98106.47;;;14.32;47.46
42601;BME280;28229;48.856;9.088;2023-04-27T08:27:07;98099.69;;;14.53;46.81
42601;BME280;28229;48.856;9.088;2023-04-27T08:29:34;98102.47;;;14.75;45.27
42601;BME280;28229;48.856;9.088;2023-04-27T08:32:02;98094.63;;;14.97;44.97
42601;BME280;28229;48.856;9.088;2023-04-27T08:34:29;98097.00;;;14.99;44.40
42601;BME280;28229;48.856;9.088;2023-04-27T08:36:56;98090.03;;;14.93;44.64
42601;BME280;28229;48.856;9.088;2023-04-27T08:39:22;98094.28;;;15.11;44.34
42601;BME280;28229;48.856;9.088;2023-04-27T08:41:49;98092.88;;;15.25;44.40
42601;BME280;28229;48.856;9.088;2023-04-27T08:44:15;98086.69;;;15.36;44.95
42601;BME280;28229;48.856;9.088;2023-04-27T08:46:41;98084.47;;;15.50;45.10
42601;BME280;28229;48.856;9.088;2023-04-27T08:49:07;98086.28;;;15.67;43.03
42601;BME280;28229;48.856;9.088;2023-04-27T08:51:34;98079.16;;;15.89;42.85
42601;BME280;28229;48.856;9.088;2023-04-27T08:54:01;98076.81;;;16.20;42.65
42601;BME280;28229;48.856;9.088;2023-04-27T08:56:28;98081.25;;;16.36;41.50
42601;BME280;28229;48.856;9.088;2023-04-27T08:58:56;98083.63;;;16.38;38.80
42601;BME280;28229;48.856;9.088;2023-04-27T09:01:23;98082.75;;;16.27;39.58
42601;BME280;28229;48.856;9.088;2023-04-27T09:03:56;98084.56;;;16.49;38.39
42601;BME280;28229;48.856;9.088;2023-04-27T09:06:30;98084.97;;;16.68;38.70
42601;BME280;28229;48.856;9.088;2023-04-27T09:08:56;98087.88;;;16.66;36.06
42601;BME280;28229;48.856;9.088;2023-04-27T09:11:33;98084.78;;;16.74;35.79
42601;BME280;28229;48.856;9.088;2023-04-27T09:14:01;98094.75;;;16.62;36.80
42601;BME280;28229;48.856;9.088;2023-04-27T09:16:29;98091.66;;;16.70;36.10
42601;BME280;28229;48.856;9.088;2023-04-27T09:18:56;98099.81;;;16.91;36.63
42601;BME280;28229;48.856;9.088;2023-04-27T09:21:28;98097.31;;;16.79;37.18
42601;BME280;28229;48.856;9.088;2023-04-27T09:23:55;98096.78;;;16.82;38.05
42601;BME280;28229;48.856;9.088;2023-04-27T09:26:24;98100.97;;;17.05;37.23
42601;BME280;28229;48.856;9.088;2023-04-27T09:28:52;98099.22;;;17.21;36.91
42601;BME280;28229;48.856;9.088;2023-04-27T09:31:19;98098.22;;;17.27;36.32
42601;BME280;28229;48.856;9.088;2023-04-27T09:33:45;98100.38;;;16.98;36.57
42601;BME280;28229;48.856;9.088;2023-04-27T09:36:19;98100.38;;;16.98;36.42
42601;BME280;28229;48.856;9.088;2023-04-27T09:38:45;98099.22;;;17.21;38.04
42601;BME280;28229;48.856;9.088;2023-04-27T09:41:12;98092.50;;;17.51;35.68
42601;BME280;28229;48.856;9.088;2023-04-27T09:43:39;98093.41;;;17.82;36.01
42601;BME280;28229;48.856;9.088;2023-04-27T09:46:10;98090.84;;;17.98;35.45
42601;BME280;28229;48.856;9.088;2023-04-27T09:48:37;98092.50;;;18.14;34.99
42601;BME280;28229;48.856;9.088;2023-04-27T09:51:04;98089.34;;;18.33;34.80
42601;BME280;28229;48.856;9.088;2023-04-27T09:53:50;98085.63;;;18.39;34.81
42601;BME280;28229;48.856;9.088;2023-04-27T09:56:30;98084.59;;;18.65;35.10
42601;BME280;28229;48.856;9.088;2023-04-27T10:01:50;98082.91;;;18.08;36.35
42601;BME280;28229;48.856;9.088;2023-04-27T10:07:07;98082.59;;;17.94;38.39
42601;BME280;28229;48.856;9.088;2023-04-27T10:09:44;98085.56;;;18.13;37.02
42601;BME280;28229;48.856;9.088;2023-04-27T10:14:55;98091.53;;;18.72;36.74
42601;BME280;28229;48.856;9.088;2023-04-27T10:17:29;98087.28;;;18.91;36.91
42601;BME280;28229;48.856;9.088;2023-04-27T10:19:58;98083.50;;;18.46;35.99
42601;BME280;28229;48.856;9.088;2023-04-27T10:22:42;98086.47;;;18.65;35.89
42601;BME280;28229;48.856;9.088;2023-04-27T10:26:05;98081.13;;;18.60;34.52
42601;BME280;28229;48.856;9.088;2023-04-27T10:28:06;98087.78;;;18.57;33.84
42601;BME280;28229;48.856;9.088;2023-04-27T10:30:36;98084.06;;;18.69;34.94
42601;BME280;28229;48.856;9.088;2023-04-27T10:33:09;98084.06;;;19.15;35.31
42601;BME280;28229;48.856;9.088;2023-04-27T10:35:37;98079.25;;;19.27;33.87
42601;BME280;28229;48.856;9.088;2023-04-27T10:38:08;98079.94;;;19.53;34.73
42601;BME280;28229;48.856;9.088;2023-04-27T10:40:36;98079.16;;;19.58;32.76
42601;BME280;28229;48.856;9.088;2023-04-27T10:43:16;98081.19;;;19.87;32.93
42601;BME280;28229;48.856;9.088;2023-04-27T10:45:43;98072.53;;;19.40;33.61
42601;BME280;28229;48.856;9.088;2023-04-27T10:48:12;98075.19;;;19.45;33.38
42601;BME280;28229;48.856;9.088;2023-04-27T10:50:42;98067.38;;;19.74;33.51
42601;BME280;28229;48.856;9.088;2023-04-27T10:53:09;98068.34;;;19.94;34.53
42601;BME280;28229;48.856;9.088;2023-04-27T10:55:35;98072.44;;;20.26;33.13
42601;BME280;28229;48.856;9.088;2023-04-27T10:58:02;98066.84;;;20.22;32.13
42601;BME280;28229;48.856;9.088;2023-04-27T11:00:38;98062.06;;;20.19;32.95
42601;BME280;28229;48.856;9.088;2023-04-27T11:03:12;98066.34;;;19.50;34.63
42601;BME280;28229;48.856;9.088;2023-04-27T11:05:44;98070.47;;;19.16;35.15
42601;BME280;28229;48.856;9.088;2023-04-27T11:08:12;98060.84;;;19.15;34.85
42601;BME280;28229;48.856;9.088;2023-04-27T11:10:46;98068.31;;;19.18;34.57
42601;BME280;28229;48.856;9.088;2023-04-27T11:13:16;98062.72;;;19.25;35.25
42601;BME280;28229;48.856;9.088;2023-04-27T11:15:54;98065.03;;;19.52;34.39
42601;BME280;28229;48.856;9.088;2023-04-27T11:18:23;98056.69;;;19.74;34.88
42601;BME280;28229;48.856;9.088;2023-04-27T11:20:51;98049.78;;;19.73;35.70
42601;BME280;28229;48.856;9.088;2023-04-27T11:23:36;98056.41;;;19.81;34.73
42601;BME280;28229;48.856;9.088;2023-04-27T11:26:21;98053.38;;;19.98;34.21
42601;BME280;28229;48.856;9.088;2023-04-27T11:31:27;98056.13;;;20.32;32.66
42601;BME280;28229;48.856;9.088;2023-04-27T11:33:54;98056.84;;;20.43;32.77
42601;BME280;28229;48.856;9.088;2023-04-27T11:36:21;98047.94;;;20.13;32.33
42601;BME280;28229;48.856;9.088;2023-04-27T11:38:48;98056.47;;;20.15;33.01
42601;BME280;28229;48.856;9.088;2023-04-27T11:41:14;98054.28;;;20.23;34.62
42601;BME280;28229;48.856;9.088;2023-04-27T11:43:42;98060.47;;;20.23;33.24
42601;BME280;28229;48.856;9.088;2023-04-27T11:46:12;98067.84;;;20.37;32.52
42601;BME280;28229;48.856;9.088;2023-04-27T11:48:38;98066.16;;;20.46;31.68
42601;BME280;28229;48.856;9.088;2023-04-27T11:51:06;98062.09;;;20.14;31.78
42601;BME280;28229;48.856;9.088;2023-04-27T11:53:34;98057.59;;;20.09;33.77
42601;BME280;28229;48.856;9.088;2023-04-27T11:56:02;98052.88;;;19.91;33.62
42601;BME280;28229;48.856;9.088;2023-04-27T11:58:33;98046.41;;;20.02;32.73
42601;BME280;28229;48.856;9.088;2023-04-27T12:01:00;98050.75;;;19.93;33.28
42601;BME280;28229;48.856;9.088;2023-04-27T12:03:27;98055.50;;;19.96;32.22
42601;BME280;28229;48.856;9.088;2023-04-27T12:05:53;98044.94;;;19.70;32.86
42601;BME280;28229;48.856;9.088;2023-04-27T12:08:19;98034.16;;;19.26;33.60
42601;BME280;28229;48.856;9.088;2023-04-27T12:10:46;98035.94;;;19.51;33.43
42601;BME280;28229;48.856;9.088;2023-04-27T12:13:13;98031.56;;;19.86;34.61
42601;BME280;28229;48.856;9.088;2023-04-27T12:15:40;98039.22;;;20.37;33.28
42601;BME280;28229;48.856;9.088;2023-04-27T12:18:07;98032.81;;;20.38;33.24
42601;BME280;28229;48.856;9.088;2023-04-27T12:20:34;98038.19;;;20.33;32.56
42601;BME280;28229;48.856;9.088;2023-04-27T12:23:00;98037.13;;;20.34;32.37
42601;BME280;28229;48.856;9.088;2023-04-27T12:25:27;98039.19;;;20.42;33.43
42601;BME280;28229;48.856;9.088;2023-04-27T12:27:53;98031.31;;;20.66;32.08
42601;BME280;28229;48.856;9.088;2023-04-27T12:30:22;98037.78;;;20.89;31.54
42601;BME280;28229;48.856;9.088;2023-04-27T12:32:48;98029.22;;;21.17;31.56
42601;BME280;28229;48.856;9.088;2023-04-27T12:35:17;98035.44;;;21.36;31.06
42601;BME280;28229;48.856;9.088;2023-04-27T12:37:43;98020.41;;;21.64;30.27
42601;BME280;28229;48.856;9.088;2023-04-27T12:40:09;98029.59;;;21.77;29.96
42601;BME280;28229;48.856;9.088;2023-04-27T12:42:38;98016.72;;;21.79;29.41
42601;BME280;28229;48.856;9.088;2023-04-27T12:45:05;98015.34;;;21.82;29.99
42601;BME280;28229;48.856;9.088;2023-04-27T12:47:32;98018.66;;;21.74;30.56
42601;BME280;28229;48.856;9.088;2023-04-27T12:49:59;98019.34;;;21.60;30.10
42601;BME280;28229;48.856;9.088;2023-04-27T12:52:26;98013.69;;;21.43;30.72
42601;BME280;28229;48.856;9.088;2023-04-27T12:54:52;98012.56;;;21.44;30.18
42601;BME280;28229;48.856;9.088;2023-04-27T12:57:22;98014.09;;;21.55;30.40
42601;BME280;28229;48.856;9.088;2023-04-27T12:59:48;98011.75;;;21.48;30.30
42601;BME280;28229;48.856;9.088;2023-04-27T13:02:14;98017.34;;;21.52;30.14
42601;BME280;28229;48.856;9.088;2023-04-27T13:04:41;98005.69;;;21.62;31.49
42601;BME280;28229;48.856;9.088;2023-04-27T13:07:07;98005.63;;;21.48;31.07
42601;BME280;28229;48.856;9.088;2023-04-27T13:09:33;98007.66;;;21.56;31.26
42601;BME280;28229;48.856;9.088;2023-04-27T13:12:01;97996.50;;;21.49;30.57
42601;BME280;28229;48.856;9.088;2023-04-27T13:14:27;98004.44;;;21.06;30.21
42601;BME280;28229;48.856;9.088;2023-04-27T13:16:53;97994.38;;;21.46;31.38
42601;BME280;28229;48.856;9.088;2023-04-27T13:19:20;97998.75;;;21.80;30.60
42601;BME280;28229;48.856;9.088;2023-04-27T13:21:49;97996.72;;;21.91;30.88